createdAt,value
2018-11-06T00:04:33.749Z,6.20
2018-11-06T00:09:37.071Z,5.10
2018-11-06T00:14:41.170Z,4.43
2018-11-06T01:46:01.538Z,4.53
2018-11-06T01:51:05.639Z,3.70
2018-11-06T01:56:08.954Z,3.27
2018-11-06T03:33:17.328Z,1.50
2018-11-06T03:38:47.738Z,1.50
2018-11-06T03:43:51.090Z,1.50
2018-11-06T04:46:26.222Z,1.60
2018-11-06T04:51:29.555Z,2.03
2018-11-06T04:56:32.879Z,1.20
2018-11-06T05:35:57.571Z,1.40
2018-11-06T05:41:01.655Z,1.10
2018-11-06T05:46:05.015Z,1.43
2018-11-06T05:51:09.102Z,1.30
2018-11-06T05:56:12.431Z,1.30
2018-11-06T06:01:15.770Z,1.10
2018-11-06T06:06:19.871Z,1.20
2018-11-06T06:11:23.196Z,1.37
2018-11-06T06:16:27.288Z,1.10
2018-11-06T06:21:30.614Z,1.00
2018-11-06T06:26:33.943Z,1.13
2018-11-06T06:31:44.060Z,1.20
2018-11-06T06:36:47.401Z,1.20
2018-11-06T06:41:50.738Z,1.80
2018-11-06T06:46:54.067Z,1.43
2018-11-06T06:51:58.151Z,1.70
2018-11-06T06:57:15.106Z,1.80
2018-11-06T07:02:18.442Z,1.63
2018-11-06T07:07:22.535Z,1.70
2018-11-06T07:12:25.864Z,1.40
2018-11-06T07:17:29.196Z,1.70
2018-11-06T07:22:33.284Z,1.90
2018-11-06T07:27:37.514Z,2.70
2018-11-06T08:01:26.746Z,1.77
2018-11-06T08:06:30.186Z,2.63
2018-11-06T08:11:33.426Z,1.93
2018-11-06T09:02:38.418Z,1.70
2018-11-06T09:07:41.641Z,1.20
2018-11-06T09:12:45.738Z,0.97
2018-11-06T10:03:50.238Z,0.90
2018-11-06T10:08:54.332Z,0.87
2018-11-06T10:13:57.659Z,1.27
2018-11-06T11:05:03.007Z,0.90
2018-11-06T11:10:06.343Z,0.93
2018-11-06T11:15:10.614Z,0.70
2018-11-06T12:00:56.444Z,0.70
2018-11-06T12:05:59.776Z,0.80
2018-11-06T12:11:03.113Z,0.53
2018-11-06T13:02:08.315Z,1.10
2018-11-06T13:07:11.655Z,0.73
2018-11-06T13:12:14.988Z,0.70
2018-11-06T14:03:19.889Z,0.50
2018-11-06T14:08:23.244Z,0.70
2018-11-06T14:13:27.334Z,0.60
2018-11-06T15:04:31.381Z,0.50
2018-11-06T15:09:34.716Z,0.70
2018-11-06T15:14:38.054Z,0.60
2018-11-06T15:48:27.681Z,1.00
2018-11-06T15:53:30.978Z,1.10
2018-11-06T15:58:34.317Z,1.40
2018-11-06T16:32:23.958Z,2.10
2018-11-06T16:37:27.283Z,1.40
2018-11-06T16:42:31.377Z,1.77
2018-11-06T16:47:34.722Z,1.30
2018-11-06T16:52:38.817Z,1.50
2018-11-06T16:57:42.150Z,2.00
2018-11-06T17:02:45.484Z,1.67
2018-11-06T17:07:49.587Z,1.67
2018-11-06T17:12:54.886Z,1.83
2018-11-06T17:17:58.251Z,2.20
2018-11-06T17:23:02.454Z,1.67
2018-11-06T17:28:10.547Z,1.87
2018-11-06T17:33:15.590Z,1.70
2018-11-06T17:44:09.919Z,2.10
2018-11-06T17:49:13.258Z,2.80
2018-11-06T17:54:17.359Z,1.83
2018-11-06T17:59:20.710Z,2.07
2018-11-06T18:04:24.415Z,1.60
2018-11-06T18:09:28.655Z,2.07
2018-11-06T18:14:32.015Z,2.23
2018-11-06T18:19:35.339Z,1.97
2018-11-06T18:24:38.696Z,1.70
2018-11-06T18:29:42.778Z,1.93
2018-11-06T18:34:46.266Z,2.40
2018-11-06T18:39:49.728Z,2.03
2018-11-06T18:44:53.176Z,3.33
2018-11-06T18:49:56.521Z,4.63
2018-11-06T18:54:59.866Z,4.77
2018-11-06T19:00:03.220Z,2.60
2018-11-06T19:05:06.567Z,2.80
2018-11-06T19:10:10.115Z,2.53
2018-11-06T19:15:13.461Z,1.77
2018-11-06T19:20:16.800Z,2.00
2018-11-06T19:25:20.130Z,2.20
2018-11-06T19:30:23.474Z,2.67
2018-11-06T19:35:26.818Z,2.90
2018-11-06T19:40:30.187Z,3.60
2018-11-06T19:45:33.495Z,2.20
2018-11-06T19:50:36.955Z,3.13
2018-11-06T19:55:40.334Z,2.60
2018-11-06T20:00:43.751Z,3.93
2018-11-06T20:05:47.179Z,2.57
2018-11-06T20:10:50.367Z,2.13
2018-11-06T20:15:53.737Z,1.73
2018-11-06T20:20:57.823Z,2.03
2018-11-06T20:26:01.158Z,2.40
2018-11-06T20:31:05.343Z,2.10
2018-11-06T20:36:08.672Z,2.13
2018-11-06T20:41:12.058Z,2.37
2018-11-06T20:46:15.417Z,2.93
2018-11-06T20:51:18.730Z,2.73
2018-11-06T20:56:22.827Z,2.50
2018-11-06T21:01:26.170Z,3.07
2018-11-06T21:06:29.538Z,3.03
2018-11-06T21:11:32.909Z,3.13
2018-11-06T21:16:36.203Z,3.20
2018-11-06T21:21:39.540Z,3.33
2018-11-06T21:26:43.702Z,4.00
2018-11-06T21:31:47.027Z,3.30
2018-11-06T21:36:50.364Z,3.80
2018-11-06T21:41:53.704Z,3.97
2018-11-06T21:46:57.795Z,4.90
2018-11-06T21:52:01.128Z,4.53
2018-11-06T21:57:08.403Z,4.63
2018-11-06T22:02:11.747Z,4.67
2018-11-06T22:07:22.590Z,5.83
2018-11-06T22:12:25.958Z,4.70
2018-11-06T22:17:36.791Z,5.13
2018-11-06T22:22:40.118Z,5.30
2018-11-06T22:27:43.466Z,5.30
2018-11-06T22:32:47.571Z,5.17
2018-11-06T22:38:04.134Z,5.73
2018-11-06T22:43:07.399Z,5.73
2018-11-06T22:48:10.726Z,5.97
2018-11-06T22:53:14.126Z,4.80
2018-11-06T22:58:17.415Z,5.40
2018-11-06T23:03:20.742Z,5.40
2018-11-06T23:08:24.070Z,5.00
2018-11-06T23:13:27.403Z,5.33
2018-11-06T23:18:30.731Z,5.00
2018-11-06T23:23:34.818Z,4.67
2018-11-06T23:28:38.146Z,4.80
2018-11-06T23:33:41.482Z,4.37
2018-11-06T23:38:45.569Z,5.00
2018-11-06T23:43:48.899Z,5.23
2018-11-06T23:48:52.226Z,4.67
2018-11-06T23:53:55.547Z,5.03
2018-11-06T23:58:58.879Z,4.97
